Time;durP1;ratioP1;P1;durP2;ratioP2;P2;SDS_P1;SDS_P2;PMS_P1;PMS_P2;Temp;Humidity;BMP_temperature;BMP_pressure;BME280_temperature;BME280_humidity;BME280_pressure;Samples;Min_cycle;Max_cycle;Signal;HPM_P1;HPM_P2
2022/08/20 00:00:24;;;;;;;60.85;50.15;;;25.40;62.70;;;;;;4924287;28;85934;-54
2022/08/20 00:02:56;;;;;;;60.80;50.25;;;25.40;62.80;;;;;;4929920;28;89950;-54
2022/08/20 00:05:44;;;;;;;60.80;50.20;;;25.40;63.50;;;;;;4925613;28;85504;-52
2022/08/20 00:08:11;;;;;;;60.10;49.97;;;25.40;62.80;;;;;;4922259;28;85138;-54
2022/08/20 00:10:40;;;;;;;60.70;50.10;;;25.30;62.70;;;;;;4932387;28;87395;-56
2022/08/20 00:13:09;;;;;;;60.67;50.17;;;25.30;62.70;;;;;;4930993;28;85970;-55
2022/08/20 00:15:36;;;;;;;60.08;49.97;;;25.30;62.70;;;;;;4928437;28;85752;-53
2022/08/20 00:18:02;;;;;;;60.58;50.25;;;25.30;62.60;;;;;;4936088;28;85597;-51
2022/08/20 00:20:32;;;;;;;60.40;50.08;;;25.30;62.60;;;;;;4928065;28;86311;-51
2022/08/20 00:22:57;;;;;;;60.58;50.20;;;25.30;62.70;;;;;;4935207;28;84835;-48
2022/08/20 00:25:25;;;;;;;61.97;50.05;;;25.30;62.60;;;;;;4925409;28;90199;-54
2022/08/20 00:27:50;;;;;;;61.03;49.85;;;25.30;62.70;;;;;;4947579;28;85713;-53
2022/08/20 00:30:16;;;;;;;60.47;50.10;;;25.30;62.70;;;;;;4933650;28;86296;-54
2022/08/20 00:32:48;;;;;;;60.85;50.35;;;25.30;62.70;;;;;;4927897;28;85702;-54
2022/08/20 00:35:16;;;;;;;60.63;50.03;;;25.30;62.80;;;;;;4930371;28;86170;-53
2022/08/20 00:37:42;;;;;;;61.05;50.25;;;25.30;62.70;;;;;;4930349;28;85962;-57
2022/08/20 00:40:10;;;;;;;60.70;50.15;;;25.30;62.80;;;;;;4924363;28;86855;-54
2022/08/20 00:42:41;;;;;;;60.25;49.95;;;25.30;62.80;;;;;;4935176;28;85688;-52
2022/08/20 00:45:07;;;;;;;60.45;50.08;;;25.20;62.80;;;;;;4933926;28;87459;-54
2022/08/20 00:47:33;;;;;;;61.10;50.10;;;25.20;62.70;;;;;;4930269;28;85690;-54
2022/08/20 00:49:58;;;;;;;61.13;50.28;;;25.20;62.80;;;;;;4934312;28;87354;-52
2022/08/20 00:52:24;;;;;;;60.95;50.15;;;25.20;62.70;;;;;;4932510;28;85128;-50
2022/08/20 00:54:57;;;;;;;60.50;50.08;;;25.20;62.80;;;;;;4934179;28;88801;-53
2022/08/20 00:57:29;;;;;;;60.35;50.00;;;25.20;62.80;;;;;;4926553;28;85310;-51
2022/08/20 00:59:57;;;;;;;60.28;50.05;;;25.20;62.80;;;;;;4926949;28;87321;-52
2022/08/20 01:02:26;;;;;;;60.33;50.05;;;25.20;62.80;;;;;;4924348;28;85614;-53
2022/08/20 01:04:53;;;;;;;60.85;50.03;;;25.20;62.80;;;;;;4933054;28;85989;-52
2022/08/20 01:07:31;;;;;;;61.13;50.13;;;25.20;62.80;;;;;;4932980;28;89204;-53
2022/08/20 01:09:58;;;;;;;60.33;49.92;;;25.20;62.80;;;;;;4925810;28;88118;-53
2022/08/20 01:12:24;;;;;;;60.35;50.05;;;25.20;62.80;;;;;;4921473;28;85675;-51
2022/08/20 01:14:50;;;;;;;60.85;50.35;;;25.20;62.80;;;;;;4930586;28;86679;-53
2022/08/20 01:17:22;;;;;;;60.35;50.00;;;25.20;62.90;;;;;;4931491;28;85235;-55
2022/08/20 01:19:57;;;;;;;60.95;50.28;;;25.10;62.80;;;;;;4931485;28;86269;-52
2022/08/20 01:26:12;;;;;;;60.53;50.03;;;25.20;63.00;;;;;;4933982;28;88158;-53
2022/08/20 01:28:54;;;;;;;61.40;50.03;;;25.10;63.00;;;;;;4895068;28;86438;-49
2022/08/20 01:31:22;;;;;;;61.90;50.13;;;25.10;62.90;;;;;;4928263;28;88773;-52
2022/08/20 01:33:50;;;;;;;61.58;50.15;;;25.10;63.00;;;;;;4934012;28;85451;-51
2022/08/20 01:36:20;;;;;;;60.55;50.03;;;25.10;63.00;;;;;;4936606;28;85507;-52
2022/08/20 01:38:48;;;;;;;60.27;49.87;;;25.00;63.00;;;;;;4928018;28;85507;-52
2022/08/20 01:41:22;;;;;;;60.13;50.03;;;25.10;63.00;;;;;;4925504;28;85420;-51
2022/08/20 01:43:49;;;;;;;60.63;50.05;;;25.00;63.10;;;;;;4928053;28;85645;-54
2022/08/20 01:46:16;;;;;;;60.72;49.92;;;25.10;63.10;;;;;;4937301;28;85108;-51
2022/08/20 01:48:43;;;;;;;60.72;49.85;;;25.00;63.10;;;;;;4940977;28;85486;-51
2022/08/20 01:51:16;;;;;;;60.80;50.05;;;25.00;63.20;;;;;;4922244;28;85149;-51
2022/08/20 01:53:47;;;;;;;60.35;49.95;;;25.00;63.20;;;;;;4922561;28;85511;-55
2022/08/20 01:56:17;;;;;;;60.42;49.90;;;25.00;63.10;;;;;;4928978;28;86209;-51
2022/08/20 01:58:52;;;;;;;62.07;50.30;;;25.00;63.10;;;;;;4937790;28;85805;-52
2022/08/20 02:01:34;;;;;;;60.50;50.08;;;25.00;63.20;;;;;;4921909;28;87837;-55
2022/08/20 02:04:01;;;;;;;60.15;50.05;;;25.00;63.20;;;;;;4925715;28;87341;-50
2022/08/20 02:06:32;;;;;;;60.60;50.15;;;25.00;63.20;;;;;;4925508;28;86160;-49
2022/08/20 02:08:58;;;;;;;;;;;25.00;63.10;;;;;;4927573;28;86470;-50
2022/08/20 02:11:26;;;;;;;60.95;49.95;;;24.90;63.20;;;;;;4932837;28;86180;-52
2022/08/20 02:13:53;;;;;;;60.03;49.83;;;24.90;63.20;;;;;;4926869;28;88230;-54
2022/08/20 02:16:25;;;;;;;60.92;50.17;;;24.90;63.20;;;;;;4931532;28;86919;-49
2022/08/20 02:18:57;;;;;;;60.90;50.13;;;24.90;63.30;;;;;;4928799;28;85558;-52
2022/08/20 02:21:26;;;;;;;59.58;49.83;;;24.90;63.40;;;;;;4928002;28;85566;-50
2022/08/20 02:23:52;;;;;;;60.30;50.05;;;24.90;63.40;;;;;;4924062;28;87078;-52
2022/08/20 02:26:18;;;;;;;60.05;50.15;;;24.90;63.30;;;;;;4932258;28;85262;-52
2022/08/20 02:28:48;;;;;;;60.38;50.20;;;24.90;63.40;;;;;;4928283;28;85997;-51
2022/08/20 02:31:14;;;;;;;60.45;49.85;;;24.90;63.40;;;;;;4936314;28;90371;-49
2022/08/20 02:33:40;;;;;;;60.42;49.83;;;24.90;63.40;;;;;;4933628;28;86061;-53
2022/08/20 02:36:06;;;;;;;61.15;49.83;;;24.90;63.50;;;;;;4934334;28;86077;-54
2022/08/20 02:38:33;;;;;;;60.63;50.03;;;24.90;63.40;;;;;;4940935;28;85570;-51
2022/08/20 02:41:00;;;;;;;61.08;50.03;;;24.90;63.40;;;;;;4928893;28;85394;-52
2022/08/20 02:43:25;;;;;;;61.90;50.05;;;24.80;63.40;;;;;;4945935;28;84963;-53
2022/08/20 02:45:51;;;;;;;60.20;50.05;;;24.90;63.50;;;;;;4930733;28;85455;-51
2022/08/20 02:48:20;;;;;;;60.38;49.97;;;24.80;63.60;;;;;;4935241;28;85683;-52
2022/08/20 02:50:51;;;;;;;59.70;49.72;;;24.80;63.30;;;;;;4937999;28;85306;-53
2022/08/20 02:53:17;;;;;;;60.75;50.30;;;24.80;63.30;;;;;;4937627;28;85701;-53
2022/08/20 02:55:43;;;;;;;60.95;50.05;;;24.80;63.30;;;;;;4933699;28;91195;-51
2022/08/20 02:58:09;;;;;;;60.03;49.75;;;24.80;63.30;;;;;;4939783;28;85946;-52
2022/08/20 03:00:35;;;;;;;60.30;49.92;;;24.80;63.30;;;;;;4933664;28;88222;-51
2022/08/20 03:03:00;;;;;;;60.17;49.90;;;24.80;63.40;;;;;;4933314;28;87464;-51
2022/08/20 03:05:27;;;;;;;60.00;49.83;;;24.80;63.60;;;;;;4927455;28;86085;-52
2022/08/20 03:07:55;;;;;;;61.83;49.95;;;24.70;63.50;;;;;;4931009;28;85138;-55
2022/08/20 03:10:30;;;;;;;60.33;49.83;;;24.80;63.50;;;;;;4934779;28;87418;-52
2022/08/20 03:12:59;;;;;;;60.63;49.88;;;24.70;64.10;;;;;;4936978;28;88270;-53
2022/08/20 03:15:25;;;;;;;60.05;50.22;;;24.70;63.40;;;;;;4923532;28;89526;-50
2022/08/20 03:17:51;;;;;;;61.40;50.13;;;24.70;63.50;;;;;;4940919;28;84986;-51
2022/08/20 03:20:17;;;;;;;60.20;49.75;;;24.70;63.50;;;;;;4924447;28;85608;-55
2022/08/20 03:22:43;;;;;;;60.65;50.00;;;24.70;63.50;;;;;;4933467;28;85191;-52
2022/08/20 03:25:09;;;;;;;60.17;50.00;;;24.70;63.50;;;;;;4933804;28;86671;-55
2022/08/20 03:27:35;;;;;;;62.60;50.05;;;24.70;63.40;;;;;;4937054;28;85248;-53
2022/08/20 03:30:01;;;;;;;62.00;50.05;;;24.70;63.40;;;;;;4932578;28;86922;-49
2022/08/20 03:32:26;;;;;;;60.42;50.20;;;24.70;63.40;;;;;;4930928;28;90786;-51
2022/08/20 03:34:52;;;;;;;59.85;49.92;;;24.70;63.40;;;;;;4937033;28;88208;-53
2022/08/20 03:37:18;;;;;;;60.10;50.05;;;24.70;63.40;;;;;;4927496;28;85665;-53
2022/08/20 03:39:43;;;;;;;59.92;49.70;;;24.70;63.40;;;;;;4934761;28;85221;-54
2022/08/20 03:42:09;;;;;;;61.20;49.97;;;24.70;63.40;;;;;;4922866;28;85559;-49
2022/08/20 03:44:35;;;;;;;60.28;50.05;;;24.70;63.40;;;;;;4940583;28;85486;-53
2022/08/20 03:47:06;;;;;;;59.92;50.08;;;24.70;63.50;;;;;;4929502;28;87241;-53
2022/08/20 03:49:32;;;;;;;59.90;50.00;;;24.70;63.50;;;;;;4923714;28;89005;-51
2022/08/20 03:52:00;;;;;;;60.65;49.97;;;24.60;63.50;;;;;;4926119;28;85194;-49
2022/08/20 03:54:26;;;;;;;60.55;50.13;;;24.60;63.50;;;;;;4933065;28;86048;-53
2022/08/20 03:56:51;;;;;;;60.95;50.13;;;24.60;63.40;;;;;;4930217;28;89859;-52
2022/08/20 03:59:17;;;;;;;60.78;49.85;;;24.60;63.40;;;;;;4928595;28;86045;-50
2022/08/20 04:01:43;;;;;;;61.38;49.95;;;24.60;63.40;;;;;;4937442;28;85514;-54
2022/08/20 04:04:09;;;;;;;61.13;49.95;;;24.60;63.60;;;;;;4925545;28;86012;-54
2022/08/20 04:06:35;;;;;;;60.35;49.72;;;24.60;63.50;;;;;;4928172;28;86569;-54
2022/08/20 04:09:00;;;;;;;60.03;49.83;;;24.60;63.50;;;;;;4931819;28;85613;-49
2022/08/20 04:11:26;;;;;;;60.13;49.92;;;24.60;63.50;;;;;;4926696;28;85715;-52
2022/08/20 04:13:52;;;;;;;60.15;49.85;;;24.60;63.50;;;;;;4929263;28;89697;-51
2022/08/20 04:16:18;;;;;;;62.25;50.03;;;24.60;63.50;;;;;;4930809;28;86047;-51
2022/08/20 04:18:43;;;;;;;60.03;50.03;;;24.60;63.50;;;;;;4944116;28;86104;-50
2022/08/20 04:21:09;;;;;;;61.38;50.05;;;24.60;63.50;;;;;;4931425;28;85714;-52
2022/08/20 04:23:34;;;;;;;62.22;50.03;;;24.60;63.50;;;;;;4929603;28;86374;-49
2022/08/20 04:26:00;;;;;;;60.38;50.00;;;24.50;63.60;;;;;;4936975;28;85371;-50
2022/08/20 04:28:27;;;;;;;60.00;49.80;;;24.50;63.50;;;;;;4933476;28;86412;-52
2022/08/20 04:30:58;;;;;;;60.17;49.83;;;24.60;63.50;;;;;;4930054;28;85848;-51
2022/08/20 04:33:25;;;;;;;59.83;49.83;;;24.50;63.50;;;;;;4927295;28;85755;-53
2022/08/20 04:35:52;;;;;;;61.10;50.05;;;24.50;63.50;;;;;;4934193;28;89397;-51
2022/08/20 04:38:19;;;;;;;60.55;49.88;;;24.50;63.70;;;;;;4931867;28;85845;-50
2022/08/20 04:40:57;;;;;;;59.88;49.95;;;24.50;63.60;;;;;;4935476;28;85811;-50
2022/08/20 04:43:27;;;;;;;60.45;49.85;;;24.50;63.50;;;;;;4926572;28;92021;-54
2022/08/20 04:45:56;;;;;;;60.50;49.67;;;24.50;63.60;;;;;;4927950;28;85743;-51
2022/08/20 04:48:23;;;;;;;60.97;50.25;;;24.50;63.60;;;;;;4937329;28;85476;-51
2022/08/20 04:50:51;;;;;;;60.10;49.85;;;24.50;63.60;;;;;;4924180;28;85491;-50
2022/08/20 04:53:18;;;;;;;59.95;49.70;;;24.40;63.60;;;;;;4920455;28;87782;-54
2022/08/20 04:55:45;;;;;;;60.97;50.03;;;24.50;63.60;;;;;;4930854;28;86973;-51
2022/08/20 04:58:26;;;;;;;59.92;50.00;;;24.50;63.40;;;;;;4935676;28;87107;-50
2022/08/20 05:00:54;;;;;;;59.78;49.72;;;24.40;63.40;;;;;;4925418;28;86906;-49
2022/08/20 05:03:21;;;;;;;60.47;49.88;;;24.50;63.50;;;;;;4921611;28;90518;-48
2022/08/20 05:05:47;;;;;;;59.97;49.92;;;24.40;63.40;;;;;;4925523;28;89023;-50
2022/08/20 05:08:14;;;;;;;60.33;50.13;;;24.50;63.40;;;;;;4920685;28;86562;-52
2022/08/20 05:10:41;;;;;;;59.58;49.75;;;24.40;63.30;;;;;;4928842;28;86998;-53
2022/08/20 05:13:07;;;;;;;60.13;49.75;;;24.40;63.40;;;;;;4925102;28;92673;-52
2022/08/20 05:15:34;;;;;;;60.63;50.05;;;24.40;63.40;;;;;;4919139;28;87090;-54
2022/08/20 05:18:02;;;;;;;61.08;49.80;;;24.50;63.40;;;;;;4922803;28;86280;-53
2022/08/20 05:20:30;;;;;;;60.05;49.90;;;24.40;63.40;;;;;;4918863;28;90699;-53
2022/08/20 05:22:57;;;;;;;60.22;49.78;;;24.50;63.40;;;;;;4921952;28;85487;-52
2022/08/20 05:25:22;;;;;;;60.25;49.95;;;24.50;63.40;;;;;;4921477;28;85597;-52
2022/08/20 05:27:48;;;;;;;60.72;50.15;;;24.50;63.20;;;;;;4929494;28;86943;-54
2022/08/20 05:30:14;;;;;;;60.03;49.95;;;24.40;63.30;;;;;;4918496;28;86765;-53
2022/08/20 05:32:39;;;;;;;61.05;49.75;;;24.50;63.30;;;;;;4930087;28;86658;-54
2022/08/20 05:35:08;;;;;;;59.75;50.05;;;24.50;63.30;;;;;;4924853;28;90921;-53
2022/08/20 05:37:39;;;;;;;60.00;49.85;;;24.40;63.20;;;;;;4929839;28;89492;-54
2022/08/20 05:40:12;;;;;;;60.08;49.70;;;24.40;63.30;;;;;;4924608;28;87400;-52
2022/08/20 05:42:37;;;;;;;59.00;49.30;;;24.40;63.40;;;;;;4932801;28;85879;-56
2022/08/20 05:45:04;;;;;;;60.22;50.05;;;24.40;63.30;;;;;;4921557;28;87046;-49
2022/08/20 05:47:30;;;;;;;60.35;49.95;;;24.50;63.40;;;;;;4920694;28;85519;-54
2022/08/20 05:49:56;;;;;;;61.58;50.30;;;24.40;64.10;;;;;;4922567;28;86233;-53
2022/08/20 05:52:21;;;;;;;61.42;50.00;;;24.40;63.40;;;;;;4915727;28;87370;-54
2022/08/20 05:54:47;;;;;;;59.92;49.90;;;24.40;63.40;;;;;;4926881;28;86551;-55
2022/08/20 05:57:17;;;;;;;60.42;49.95;;;24.40;63.40;;;;;;4924075;28;86381;-56
2022/08/20 05:59:43;;;;;;;60.22;49.83;;;24.40;63.40;;;;;;4921871;28;87966;-53
2022/08/20 06:04:23;;;;;;;59.95;49.70;;;24.40;63.40;;;;;;4916861;28;87653;-55
2022/08/20 06:04:55;;;;;;;59.20;49.65;;;24.40;63.40;;;;;;4915906;28;86197;-55
2022/08/20 06:07:21;;;;;;;60.58;49.72;;;24.40;63.60;;;;;;4927444;28;87483;-56
2022/08/20 06:09:47;;;;;;;59.53;49.85;;;24.50;63.40;;;;;;4931249;28;85122;-53
2022/08/20 06:12:13;;;;;;;61.17;50.22;;;24.40;63.30;;;;;;4926771;28;87706;-53
2022/08/20 06:14:39;;;;;;;60.60;50.35;;;24.50;63.30;;;;;;4929679;28;86550;-56
2022/08/20 06:17:14;;;;;;;60.63;49.95;;;24.50;63.30;;;;;;4910146;28;86957;-56
2022/08/20 06:19:41;;;;;;;62.47;50.03;;;24.50;63.30;;;;;;4920855;28;86227;-56
2022/08/20 06:22:07;;;;;;;60.10;49.72;;;24.50;63.10;;;;;;4928620;28;85446;-56
2022/08/20 06:24:33;;;;;;;61.50;49.90;;;24.50;63.10;;;;;;4932925;28;90698;-55
2022/08/20 06:27:00;;;;;;;61.13;50.15;;;24.50;63.10;;;;;;4910318;28;87417;-51
2022/08/20 06:29:27;;;;;;;59.92;50.00;;;24.60;63.10;;;;;;4938397;28;87012;-55
2022/08/20 06:31:54;;;;;;;61.05;50.13;;;24.60;63.00;;;;;;4926964;28;91606;-51
2022/08/20 06:34:19;;;;;;;60.50;49.88;;;24.50;62.90;;;;;;4928246;28;85498;-53
2022/08/20 06:36:46;;;;;;;60.50;50.03;;;24.50;62.60;;;;;;4916262;28;86031;-54
2022/08/20 06:39:13;;;;;;;62.35;50.13;;;24.60;62.60;;;;;;4915110;28;91683;-55
2022/08/20 06:41:38;;;;;;;60.70;50.13;;;24.60;62.70;;;;;;4924589;28;88180;-55
2022/08/20 06:44:08;;;;;;;60.85;50.10;;;24.60;62.60;;;;;;4932598;28;85607;-54
2022/08/20 06:46:35;;;;;;;59.78;49.92;;;24.60;62.50;;;;;;4923483;28;87706;-55
2022/08/20 06:49:05;;;;;;;60.78;49.85;;;24.60;62.40;;;;;;4926541;28;85811;-53
2022/08/20 06:51:32;;;;;;;61.85;50.10;;;24.60;62.40;;;;;;4925392;28;86268;-55
2022/08/20 06:53:58;;;;;;;60.75;50.15;;;24.60;62.10;;;;;;4932547;28;86213;-51
2022/08/20 06:56:24;;;;;;;60.30;50.08;;;24.60;62.50;;;;;;4912526;28;86275;-51
2022/08/20 06:58:50;;;;;;;60.83;50.20;;;24.60;62.50;;;;;;4923688;28;85426;-53
2022/08/20 07:01:20;;;;;;;61.10;49.95;;;24.60;62.50;;;;;;4905977;28;85973;-54
2022/08/20 07:03:48;;;;;;;60.15;50.03;;;24.60;62.40;;;;;;4901717;28;85728;-52
2022/08/20 07:06:14;;;;;;;60.80;50.17;;;24.60;62.40;;;;;;4919796;28;86001;-53
2022/08/20 07:08:41;;;;;;;60.95;50.25;;;24.60;62.50;;;;;;4923221;28;86776;-54
2022/08/20 07:11:08;;;;;;;60.47;50.20;;;24.60;62.10;;;;;;4923523;28;85722;-53
2022/08/20 07:13:36;;;;;;;61.20;50.05;;;24.60;61.90;;;;;;4923347;28;85921;-53
2022/08/20 07:16:03;;;;;;;59.85;49.75;;;24.60;62.10;;;;;;4930857;28;86551;-51
2022/08/20 07:18:30;;;;;;;60.40;50.15;;;24.60;62.20;;;;;;4921970;28;87344;-52
2022/08/20 07:20:56;;;;;;;63.30;50.38;;;24.60;62.00;;;;;;4925124;28;86830;-53
2022/08/20 07:23:24;;;;;;;61.40;50.22;;;24.70;62.20;;;;;;4919202;28;85934;-53
2022/08/20 07:25:50;;;;;;;61.00;49.95;;;24.70;61.60;;;;;;4934865;28;85776;-55
2022/08/20 07:28:20;;;;;;;62.25;50.22;;;24.70;61.50;;;;;;4923893;28;85426;-53
2022/08/20 07:33:31;;;;;;;60.22;50.05;;;24.70;61.70;;;;;;4928649;28;86221;-54
2022/08/20 07:35:59;;;;;;;61.67;50.42;;;24.70;61.80;;;;;;4931653;28;85451;-54
2022/08/20 07:38:26;;;;;;;62.22;50.45;;;24.70;61.40;;;;;;4929836;28;87188;-53
2022/08/20 07:40:55;;;;;;;62.85;50.42;;;24.70;61.80;;;;;;4912661;28;86761;-54
2022/08/20 07:43:24;;;;;;;65.32;50.55;;;24.70;62.00;;;;;;4922864;28;91765;-53
2022/08/20 07:45:54;;;;;;;61.88;50.55;;;24.70;61.90;;;;;;4928210;28;85737;-55
2022/08/20 07:48:20;;;;;;;61.80;50.63;;;24.80;61.80;;;;;;4930854;28;86150;-50
2022/08/20 07:50:48;;;;;;;63.35;51.05;;;24.80;61.90;;;;;;4928900;28;86083;-53
2022/08/20 07:53:15;;;;;;;64.68;51.03;;;24.80;61.80;;;;;;4925544;28;86674;-52
2022/08/20 07:55:41;;;;;;;64.47;51.53;;;24.80;61.40;;;;;;4918861;28;91108;-55
2022/08/20 07:58:14;;;;;;;67.22;51.75;;;24.80;61.80;;;;;;4917234;28;86425;-50
2022/08/20 08:00:40;;;;;;;74.32;52.33;;;24.80;61.50;;;;;;4918579;28;85627;-50
2022/08/20 08:03:06;;;;;;;67.20;52.22;;;24.70;61.90;;;;;;4917960;28;90403;-54
2022/08/20 08:05:37;;;;;;;65.85;51.88;;;24.80;61.70;;;;;;4931781;28;87823;-54
2022/08/20 08:08:07;;;;;;;64.80;51.90;;;24.80;61.20;;;;;;4928994;28;85113;-53
2022/08/20 08:10:35;;;;;;;68.35;52.40;;;24.80;61.40;;;;;;4934361;28;85152;-54
2022/08/20 08:13:04;;;;;;;66.15;51.80;;;24.80;61.60;;;;;;4932714;28;86550;-54
2022/08/20 08:15:37;;;;;;;68.00;51.95;;;24.80;61.40;;;;;;4934749;28;85861;-53
2022/08/20 08:18:07;;;;;;;67.28;52.13;;;24.80;61.50;;;;;;4931674;28;89457;-53
2022/08/20 08:20:37;;;;;;;67.30;51.90;;;24.90;61.40;;;;;;4940634;28;87309;-53
2022/08/20 08:23:04;;;;;;;65.38;51.88;;;24.90;61.50;;;;;;4935295;28;86578;-51
2022/08/20 08:25:32;;;;;;;65.25;51.47;;;24.90;62.00;;;;;;4931934;28;85618;-52
2022/08/20 08:27:59;;;;;;;64.18;51.22;;;24.90;61.20;;;;;;4925633;28;86202;-53
2022/08/20 08:30:27;;;;;;;63.72;51.47;;;24.90;61.10;;;;;;4932288;28;88205;-55
2022/08/20 08:35:38;;;;;;;65.32;51.75;;;24.90;60.80;;;;;;4933572;28;85516;-54
2022/08/20 08:38:04;;;;;;;65.10;51.30;;;24.80;61.20;;;;;;4929151;28;87160;-51
2022/08/20 08:40:31;;;;;;;65.63;51.53;;;24.90;61.10;;;;;;4931882;28;85278;-51
2022/08/20 08:43:01;;;;;;;63.13;51.10;;;24.90;61.00;;;;;;4939722;28;85136;-50
2022/08/20 08:45:37;;;;;;;62.70;50.90;;;24.90;60.60;;;;;;4948498;28;85211;-51
2022/08/20 08:48:03;;;;;;;63.33;51.20;;;24.90;60.40;;;;;;4929137;28;85625;-54
2022/08/20 08:50:32;;;;;;;63.88;51.50;;;24.90;60.50;;;;;;4933731;28;85066;-52
2022/08/20 08:52:59;;;;;;;63.88;51.03;;;24.90;60.80;;;;;;4933035;28;85551;-53
2022/08/20 08:55:27;;;;;;;66.00;51.42;;;24.90;60.80;;;;;;4933401;28;86582;-51
2022/08/20 08:57:58;;;;;;;64.60;51.40;;;25.00;60.50;;;;;;4930161;28;85920;-52
2022/08/20 09:00:27;;;;;;;62.47;51.00;;;24.90;60.40;;;;;;4932107;28;88746;-53
2022/08/20 09:02:56;;;;;;;65.97;51.40;;;24.90;60.30;;;;;;4923180;28;85939;-54
2022/08/20 09:05:26;;;;;;;64.63;51.42;;;25.00;60.40;;;;;;4939142;28;85252;-52
2022/08/20 09:07:52;;;;;;;64.65;51.13;;;25.00;60.60;;;;;;4927745;28;87018;-54
2022/08/20 09:10:18;;;;;;;64.05;51.33;;;25.00;60.30;;;;;;4924853;28;85720;-54
2022/08/20 09:12:45;;;;;;;63.80;51.15;;;25.00;60.40;;;;;;4934838;28;88920;-55
2022/08/20 09:15:11;;;;;;;65.93;51.42;;;25.00;60.10;;;;;;4931907;28;89312;-53
2022/08/20 09:17:36;;;;;;;65.07;51.20;;;25.00;60.30;;;;;;4938948;28;85111;-53
2022/08/20 09:20:03;;;;;;;63.47;51.28;;;25.00;60.20;;;;;;4933287;28;85678;-52
2022/08/20 09:22:32;;;;;;;64.35;51.40;;;25.00;60.10;;;;;;4934075;28;86101;-53
2022/08/20 09:24:58;;;;;;;63.85;51.35;;;25.10;59.90;;;;;;4939786;28;85705;-52
2022/08/20 09:27:23;;;;;;;66.47;51.45;;;25.10;60.00;;;;;;4934602;28;85077;-54
2022/08/20 09:29:49;;;;;;;62.75;51.08;;;25.10;59.90;;;;;;4932965;28;86787;-55
2022/08/20 09:32:20;;;;;;;64.00;50.97;;;25.10;59.90;;;;;;4934021;28;86715;-51
2022/08/20 09:34:50;;;;;;;64.85;51.20;;;25.00;59.70;;;;;;4933032;28;85274;-53
2022/08/20 09:37:16;;;;;;;62.57;50.70;;;25.10;59.50;;;;;;4937583;28;85166;-53
2022/08/20 09:39:42;;;;;;;63.33;51.25;;;25.10;59.50;;;;;;4937051;28;86891;-55
2022/08/20 09:42:15;;;;;;;62.67;51.28;;;25.10;59.60;;;;;;4940902;28;85441;-55
2022/08/20 09:44:41;;;;;;;62.40;51.13;;;25.20;59.80;;;;;;4935514;28;85572;-52
2022/08/20 09:47:07;;;;;;;61.83;51.00;;;25.20;59.40;;;;;;4937630;28;86948;-56
2022/08/20 09:49:33;;;;;;;64.07;51.25;;;25.20;59.70;;;;;;4934304;28;85694;-55
2022/08/20 09:52:00;;;;;;;63.50;51.33;;;25.20;59.40;;;;;;4940284;28;86175;-54
2022/08/20 09:54:28;;;;;;;63.22;51.13;;;25.20;59.40;;;;;;4935678;28;89758;-52
2022/08/20 09:56:57;;;;;;;62.60;51.05;;;25.20;59.30;;;;;;4930242;28;86268;-50
2022/08/20 09:59:23;;;;;;;62.95;50.92;;;25.30;59.30;;;;;;4938136;28;85531;-51
2022/08/20 10:01:49;;;;;;;62.90;51.28;;;25.30;59.00;;;;;;4956505;28;86262;-54
2022/08/20 10:04:14;;;;;;;62.95;51.08;;;25.30;59.30;;;;;;4932774;28;86486;-49
2022/08/20 10:06:41;;;;;;;62.60;50.92;;;25.40;59.30;;;;;;4933758;28;87106;-54
2022/08/20 10:09:07;;;;;;;62.97;50.90;;;25.40;59.20;;;;;;4942007;28;86060;-51
2022/08/20 10:11:33;;;;;;;62.08;51.08;;;25.40;59.30;;;;;;4935416;28;86710;-51
2022/08/20 10:13:58;;;;;;;62.80;50.88;;;25.40;59.20;;;;;;4940263;28;85354;-54
2022/08/20 10:16:24;;;;;;;63.60;51.15;;;25.40;59.10;;;;;;4932314;28;85705;-55
2022/08/20 10:18:50;;;;;;;62.97;51.20;;;25.40;59.00;;;;;;4936910;28;85658;-54
2022/08/20 10:21:16;;;;;;;62.45;50.75;;;25.40;59.00;;;;;;4938408;28;85514;-49
2022/08/20 10:23:41;;;;;;;64.60;51.25;;;25.50;58.70;;;;;;4934679;28;85056;-53
2022/08/20 10:26:08;;;;;;;65.10;51.35;;;25.50;58.90;;;;;;4939718;28;88378;-55
2022/08/20 10:28:35;;;;;;;62.13;50.90;;;25.50;59.50;;;;;;4933179;28;86251;-49
2022/08/20 10:31:00;;;;;;;63.17;51.25;;;25.50;58.80;;;;;;4931788;28;90551;-49
2022/08/20 10:33:26;;;;;;;62.85;50.90;;;25.60;58.90;;;;;;4935992;28;90534;-55
2022/08/20 10:35:52;;;;;;;62.72;50.83;;;25.60;58.70;;;;;;4939147;28;85334;-52
2022/08/20 10:38:17;;;;;;;62.35;50.92;;;25.60;58.70;;;;;;4940240;28;85864;-53
2022/08/20 10:40:43;;;;;;;63.42;51.13;;;25.60;58.60;;;;;;4933010;28;85895;-52
2022/08/20 10:43:09;;;;;;;62.80;50.88;;;25.60;58.60;;;;;;4941995;28;85235;-53
2022/08/20 10:45:35;;;;;;;63.15;50.92;;;25.60;58.60;;;;;;4934615;28;88783;-55
2022/08/20 10:48:01;;;;;;;61.90;50.67;;;25.60;58.60;;;;;;4938307;28;89344;-52
2022/08/20 10:50:27;;;;;;;62.75;51.03;;;25.70;58.50;;;;;;4933241;28;86482;-54
2022/08/20 10:52:53;;;;;;;63.92;51.05;;;25.60;58.50;;;;;;4936105;28;86812;-53
2022/08/20 10:55:18;;;;;;;62.65;51.05;;;25.70;58.50;;;;;;4936284;28;86304;-52
2022/08/20 10:57:45;;;;;;;63.45;50.95;;;25.70;58.50;;;;;;4928450;28;85454;-54
2022/08/20 11:00:13;;;;;;;62.92;50.97;;;25.70;58.40;;;;;;4930101;28;87444;-53
2022/08/20 11:02:39;;;;;;;62.90;50.95;;;25.70;58.30;;;;;;4937932;28;85255;-53
2022/08/20 11:05:06;;;;;;;62.58;51.20;;;25.80;58.30;;;;;;4932335;28;85590;-53
2022/08/20 11:07:37;;;;;;;62.72;50.83;;;25.80;58.30;;;;;;4931521;28;92388;-52
2022/08/20 11:10:05;;;;;;;63.65;51.00;;;25.80;58.20;;;;;;4937354;28;85061;-54
2022/08/20 11:12:31;;;;;;;62.75;50.88;;;25.80;58.30;;;;;;4934352;28;88647;-54
2022/08/20 11:14:57;;;;;;;63.90;51.03;;;25.80;58.30;;;;;;4913823;28;85855;-51
2022/08/20 11:17:32;;;;;;;63.47;51.08;;;25.80;58.20;;;;;;4904961;28;89428;-53
2022/08/20 11:19:59;;;;;;;62.83;50.83;;;25.80;58.20;;;;;;4926390;28;88558;-52
2022/08/20 11:22:26;;;;;;;63.28;51.35;;;25.80;58.20;;;;;;4925990;28;87225;-52
2022/08/20 11:24:52;;;;;;;64.15;51.13;;;25.80;58.20;;;;;;4927574;28;90474;-53
2022/08/20 11:27:30;;;;;;;63.65;51.15;;;25.80;58.20;;;;;;4922300;28;85661;-53
2022/08/20 11:29:56;;;;;;;63.28;51.20;;;25.80;58.20;;;;;;4924120;28;87164;-52
2022/08/20 11:32:23;;;;;;;65.20;51.42;;;25.80;58.20;;;;;;4923580;28;85866;-54
2022/08/20 11:34:49;;;;;;;63.60;51.28;;;25.90;58.20;;;;;;4915507;28;90827;-55
2022/08/20 11:37:16;;;;;;;63.53;51.22;;;25.90;58.10;;;;;;4922538;28;87954;-54
2022/08/20 11:39:42;;;;;;;63.63;51.58;;;25.90;58.10;;;;;;4908024;28;87756;-49
2022/08/20 11:42:08;;;;;;;62.60;51.13;;;25.90;58.00;;;;;;4924123;28;87047;-52
2022/08/20 11:44:34;;;;;;;65.18;51.42;;;26.00;57.90;;;;;;4932267;28;85893;-55
2022/08/20 11:47:03;;;;;;;63.75;51.35;;;25.90;57.70;;;;;;4919330;28;86170;-53
2022/08/20 11:49:34;;;;;;;64.00;51.35;;;26.00;57.70;;;;;;4928098;28;87126;-52
2022/08/20 11:51:59;;;;;;;63.90;51.33;;;26.00;57.50;;;;;;4917779;28;85554;-48
2022/08/20 11:54:27;;;;;;;64.07;51.55;;;26.00;57.50;;;;;;4930854;28;85542;-52
2022/08/20 11:56:56;;;;;;;63.20;51.35;;;26.00;57.40;;;;;;4915655;28;87204;-54
2022/08/20 11:59:25;;;;;;;63.70;51.25;;;26.00;57.30;;;;;;4914477;28;86479;-55
2022/08/20 12:01:53;;;;;;;63.88;51.38;;;26.00;57.20;;;;;;4912704;28;86472;-53
2022/08/20 12:04:19;;;;;;;63.35;51.25;;;26.00;57.20;;;;;;4917678;28;87406;-54
2022/08/20 12:06:44;;;;;;;63.10;51.40;;;26.00;57.10;;;;;;4915114;28;85593;-54
2022/08/20 12:09:10;;;;;;;62.97;51.50;;;26.00;57.10;;;;;;4925158;28;86625;-52
2022/08/20 12:11:36;;;;;;;63.47;51.25;;;26.00;57.10;;;;;;4923409;28;85840;-52
2022/08/20 12:14:01;;;;;;;64.75;51.35;;;26.00;57.10;;;;;;4911572;28;85904;-52
2022/08/20 12:16:27;;;;;;;63.88;51.38;;;26.00;57.60;;;;;;4924714;28;86060;-54
2022/08/20 12:18:53;;;;;;;64.18;51.50;;;26.00;56.90;;;;;;4907833;28;91331;-54
2022/08/20 12:21:19;;;;;;;64.30;51.45;;;26.10;57.00;;;;;;4927319;28;86403;-54
2022/08/20 12:23:45;;;;;;;64.25;51.28;;;26.10;56.90;;;;;;4931601;28;86122;-51
2022/08/20 12:26:10;;;;;;;64.13;51.30;;;26.10;56.90;;;;;;4935984;28;87526;-53
2022/08/20 12:28:36;;;;;;;64.70;51.55;;;26.10;56.90;;;;;;4929030;28;86246;-54
2022/08/20 12:31:02;;;;;;;63.90;51.55;;;26.10;56.90;;;;;;4932289;28;89289;-51
2022/08/20 12:33:27;;;;;;;63.83;51.33;;;26.10;57.00;;;;;;4936129;28;88618;-50
2022/08/20 12:35:53;;;;;;;64.60;51.22;;;26.10;57.60;;;;;;4933743;28;85758;-52
2022/08/20 12:38:19;;;;;;;63.65;51.58;;;26.10;57.20;;;;;;4924414;28;85737;-51